Latest Weather Observations for Hogan Island

IDV60801

Issued at 9:12 am EDT Friday 22 October 2021 (issued every 10 minutes, with the page automatically refreshed every 10 minutes)

About weather observations | Map of weather stations | Latest weather observations for VIC | Other Formats
Station Details ID: 200838 Name: HOGAN ISLAND Lat: -39.22 Lon: 146.98 Height: 116.0 m
Data from the previous 72 hours. | See also: Recent months at Hogan Island
Date/Time
EDT
Temp
°C
App
Temp
°C
Dew
Point
°C
Rel
Hum
%
Delta-T
°C
Wind Press
QNH
hPa
Press
MSL
hPa
Rain since
9am
mm
Dir  Spd
km/h
Gust
km/h
Spd
kts
Gust
kts
22/09:00am 14.9 11.1 14.6 98 0.2 NE 28 35 15 19 1015.4 1015.4 0.0
22/08:30am 14.6 11.1 14.4 99 0.1 NE 26 33 14 18 1015.3 1015.3 0.0
22/08:00am 14.2 10.2 14.0 99 0.1 NE 28 33 15 18 1015.1 1015.1 0.0
22/07:30am 13.9 9.8 13.7 99 0.1 ENE 28 35 15 19 1014.9 1014.9 0.0
22/07:00am 13.6 9.4 13.4 99 0.1 ENE 28 35 15 19 1014.7 1014.7 0.0
22/06:30am 13.6 9.4 13.4 99 0.1 ENE 28 35 15 19 1014.5 1014.5 0.0
22/06:00am 13.5 9.2 13.3 99 0.1 ENE 28 33 15 18 1014.4 1014.4 0.0
22/05:30am 13.6 8.6 13.4 99 0.1 NE 32 39 17 21 1014.3 1014.3 0.0
22/05:00am 13.5 8.8 13.3 99 0.1 NE 30 35 16 19 1014.2 1014.2 0.0
22/04:30am 13.8 8.3 13.6 99 0.1 NE 35 41 19 22 1014.3 1014.3 0.0
22/04:00am 13.8 7.9 13.6 99 0.1 NE 37 44 20 24 1014.3 1014.3 0.0
22/03:30am 13.8 7.9 13.6 99 0.1 NE 37 46 20 25 1014.4 1014.4 0.0
22/03:00am 13.9 7.7 13.7 99 0.1 NE 39 46 21 25 1014.4 1014.4 0.0
22/02:30am 13.8 8.3 13.6 99 0.1 NE 35 43 19 23 1014.4 1014.4 0.0
22/02:00am 13.8 7.9 13.6 99 0.1 NE 37 43 20 23 1014.6 1014.6 0.0
22/01:30am 14.0 8.9 13.8 99 0.1 NE 33 43 18 23 1015.1 1015.1 0.0
22/01:00am 13.8 9.2 13.6 99 0.1 NE 30 35 16 19 1015.4 1015.4 0.0
22/12:30am 13.5 8.8 13.3 99 0.1 ENE 30 33 16 18 1015.6 1015.6 0.0
22/12:00am 13.6 8.6 13.4 99 0.1 ENE 32 37 17 20 1015.7 1015.7 0.0
 
Date/Time
EDT
Temp
°C
App
Temp
°C
Dew
Point
°C
Rel
Hum
%
Delta-T
°C
Wind Press
QNH
hPa
Press
MSL
hPa
Rain since
9am
mm
Dir  Spd
km/h
Gust
km/h
Spd
kts
Gust
kts
21/11:30pm 13.5 8.5 13.3 99 0.1 ENE 32 35 17 19 1015.5 1015.5 0.0
21/11:00pm 13.4 8.1 13.2 99 0.1 ENE 33 37 18 20 1015.7 1015.7 0.0
21/10:30pm 13.5 8.5 13.3 99 0.1 ENE 32 33 17 18 1016.0 1016.0 0.0
21/10:00pm 13.6 8.6 13.4 99 0.1 ENE 32 35 17 19 1016.2 1016.2 0.0
21/09:30pm 13.7 8.2 13.5 99 0.1 ENE 35 39 19 21 1016.0 1016.0 0.0
21/09:00pm 13.8 8.7 13.6 99 0.1 ENE 33 37 18 20 1016.0 1016.0 0.0
21/08:30pm 13.8 8.9 13.6 99 0.1 ENE 32 35 17 19 1015.7 1015.7 0.0
21/08:00pm 13.8 8.7 13.6 99 0.1 ENE 33 37 18 20 1015.6 1015.6 0.0
21/07:30pm 14.0 9.1 13.7 98 0.2 ENE 32 35 17 19 1015.7 1015.7 0.0
21/07:00pm 14.3 9.4 13.8 97 0.3 ENE 32 35 17 19 1015.5 1015.5 0.0
21/06:30pm 14.7 9.0 14.1 96 0.3 ENE 37 44 20 24 1015.3 1015.3 0.0
21/06:00pm 15.0 8.2 14.2 95 0.5 ENE 43 50 23 27 1014.9 1014.9 0.0
21/05:30pm 15.5 9.5 14.4 93 0.6 ENE 39 46 21 25 1014.7 1014.7 0.0
21/05:00pm 15.0 10.1 13.7 92 0.7 ENE 32 35 17 19 1014.9 1014.9 0.0
21/04:30pm 16.2 11.8 14.2 88 1.1 ENE 30 33 16 18 1015.2 1015.2 0.0
21/04:00pm 16.7 12.4 14.5 87 1.3 ENE 30 37 16 20 1015.1 1015.1 0.0
21/03:30pm 17.0 13.0 15.2 89 1.1 ENE 30 37 16 20 1015.1 1015.1 0.0
21/03:00pm 15.8 11.2 14.5 92 0.7 ENE 32 37 17 20 1015.3 1015.3 0.0
21/02:30pm 15.4 11.5 14.3 93 0.6 ENE 28 32 15 17 1015.9 1015.9 0.0
21/02:00pm 15.7 11.5 14.6 93 0.6 ENE 30 33 16 18 1016.0 1016.0 0.0
21/01:30pm 15.2 10.8 14.2 94 0.6 ENE 30 33 16 18 1016.2 1016.2 0.0
21/01:00pm 15.4 11.0 14.1 92 0.7 ENE 30 35 16 19 1016.5 1016.5 0.0
21/12:30pm 15.9 11.1 14.1 89 1.0 ENE 32 37 17 20 1016.5 1016.5 0.0
21/12:00pm 17.0 12.7 15.3 90 1.0 ENE 32 37 17 20 1017.1 1017.1 0.0
21/11:30am 16.2 11.6 14.7 91 0.9 ENE 32 35 17 19 1017.5 1017.5 0.0
21/11:00am 15.9 11.2 14.8 93 0.6 ENE 33 39 18 21 1017.6 1017.6 0.0
21/10:30am 15.2 9.9 14.2 94 0.6 ENE 35 41 19 22 1017.7 1017.7 0.0
21/10:00am 15.5 9.5 14.4 93 0.6 ENE 39 43 21 23 1017.5 1017.5 0.0
21/09:30am 15.3 9.0 14.5 95 0.5 ENE 41 48 22 26 1017.4 1017.4 0.0
21/09:00am 15.2 7.9 14.6 96 0.3 ENE 46 52 25 28 1017.1 1017.1 0.0
21/08:30am 14.4 7.0 14.2 99 0.1 ENE 46 52 25 28 1017.2 1017.2 0.0
21/08:00am 14.0 6.1 13.8 99 0.1 ENE 48 56 26 30 1017.0 1017.0 0.0
21/07:30am 13.6 4.4 13.4 99 0.1 ENE 54 63 29 34 1017.0 1017.0 0.0
21/07:00am 13.4 5.3 13.2 99 0.1 ENE 48 56 26 30 1017.2 1017.2 0.0
21/06:30am 13.1 4.9 12.9 99 0.1 ENE 48 57 26 31 1016.7 1016.7 0.0
21/06:00am 13.0 4.4 12.8 99 0.1 ENE 50 56 27 30 1016.7 1016.7 0.0
21/05:30am 13.0 5.1 12.8 99 0.1 ENE 46 52 25 28 1016.8 1016.8 0.0
21/05:00am 12.9 4.2 12.7 99 0.1 ENE 50 56 27 30 1016.8 1016.8 0.0
21/04:30am 12.8 4.1 12.6 99 0.1 ENE 50 57 27 31 1016.8 1016.8 0.0
21/04:00am 12.8 4.1 12.6 99 0.1 ENE 50 57 27 31 1016.9 1016.9 0.0
21/03:30am 12.7 4.7 12.5 99 0.1 ENE 46 57 25 31 1017.3 1017.3 0.0
21/03:00am 12.7 3.2 12.5 99 0.1 ENE 54 61 29 33 1017.0 1017.0 0.0
21/02:30am 12.8 3.7 12.6 99 0.1 ENE 52 61 28 33 1017.6 1017.6 0.0
21/02:00am 12.9 4.2 12.6 98 0.2 ENE 50 59 27 32 1018.1 1018.1 0.0
21/01:30am 13.0 4.3 12.5 97 0.3 ENE 50 61 27 33 1019.0 1019.0 0.0
21/01:00am 12.9 4.2 12.4 97 0.3 ENE 50 61 27 33 1019.2 1019.2 0.0
21/12:30am 13.0 3.1 12.4 96 0.3 ENE 56 69 30 37 1019.5 1019.4 0.0
21/12:00am 12.9 3.0 12.3 96 0.3 ENE 56 67 30 36 1019.7 1019.6 0.0
 
Date/Time
EDT
Temp
°C
App
Temp
°C
Dew
Point
°C
Rel
Hum
%
Delta-T
°C
Wind Press
QNH
hPa
Press
MSL
hPa
Rain since
9am
mm
Dir  Spd
km/h
Gust
km/h
Spd
kts
Gust
kts
20/11:30pm 12.9 3.7 12.3 96 0.3 ENE 52 59 28 32 1020.0 1019.9 0.0
20/11:00pm 12.8 4.0 12.3 97 0.3 ENE 50 61 27 33 1020.3 1020.2 0.0
20/10:30pm 12.6 3.3 12.0 96 0.3 ENE 52 63 28 34 1020.5 1020.5 0.0
20/10:00pm 12.6 2.5 11.8 95 0.4 E 56 67 30 36 1020.7 1020.7 0.0
20/09:30pm 12.5 3.1 11.6 94 0.5 E 52 61 28 33 1021.0 1021.0 0.0
20/09:00pm 12.5 3.1 11.4 93 0.6 E 52 67 28 36 1021.0 1021.0 0.0
20/08:30pm 12.5 3.2 11.7 95 0.4 E 52 61 28 33 1020.9 1020.9 0.0
20/08:00pm 12.4 3.1 11.8 96 0.3 E 52 61 28 33 1020.5 1020.5 0.0
20/07:30pm 12.4 3.5 11.8 96 0.3 E 50 57 27 31 1020.4 1020.3 0.0
20/07:00pm 12.7 3.4 11.8 94 0.5 E 52 59 28 32 1020.1 1020.0 0.0
20/06:30pm 12.9 3.9 11.6 92 0.7 E 50 59 27 32 1020.3 1020.2 0.0
20/06:00pm 13.3 3.6 11.7 90 0.9 E 54 59 29 32 1020.3 1020.2 0.0
20/05:30pm 13.6 4.3 11.7 88 1.0 E 52 63 28 34 1020.4 1020.3 0.0
20/05:00pm 14.0 4.7 11.7 86 1.2 E 52 61 28 33 1020.6 1020.6 0.0
20/04:30pm 14.2 4.8 11.5 84 1.5 E 52 61 28 33 1020.8 1020.8 0.0
20/04:00pm 14.7 5.4 11.8 83 1.6 E 52 61 28 33 1021.0 1021.0 0.0
20/03:30pm 15.0 6.1 12.0 82 1.6 E 50 57 27 31 1021.7 1021.7 0.0
20/03:00pm 15.0 6.2 12.1 83 1.6 E 50 57 27 31 1022.2 1022.2 0.0
20/02:30pm 15.3 6.0 11.9 80 1.9 E 52 61 28 33 1022.4 1022.4 0.0
20/02:00pm 15.3 6.7 11.7 79 1.9 E 48 59 26 32 1022.7 1022.7 0.0
20/01:30pm 15.5 6.6 11.9 79 2.0 E 50 57 27 31 1022.7 1022.7 0.0
20/01:00pm 15.2 6.1 11.4 78 2.0 E 50 65 27 35 1022.8 1022.8 0.0
20/12:30pm 15.4 6.4 11.6 78 2.1 E 50 57 27 31 1023.1 1023.1 0.0
20/12:00pm 15.3 6.0 11.7 79 1.9 E 52 61 28 33 1023.5 1023.5 0.0
20/11:30am 15.2 6.3 11.8 80 1.8 E 50 59 27 32 1023.8 1023.8 0.0
20/11:00am 14.8 5.0 11.4 80 1.8 E 54 61 29 33 1023.9 1023.9 0.0
20/10:30am 15.0 6.8 11.8 81 1.7 E 46 54 25 29 1024.4 1024.4 0.0
20/10:00am 14.6 4.8 11.4 81 1.7 E 54 63 29 34 1024.3 1024.3 0.0
20/09:30am 14.0 4.4 10.8 81 1.7 E 52 59 28 32 1024.1 1024.1 0.0
20/09:00am 13.8 4.7 11.1 84 1.4 E 50 56 27 30 1024.3 1024.3 0.0
20/08:30am 13.0 2.9 10.5 85 1.3 E 54 59 29 32 1024.1 1024.1 0.0
20/08:00am 12.7 2.9 10.2 85 1.3 E 52 61 28 33 1024.5 1024.5 0.0
20/07:30am 12.3 2.9 10.0 86 1.2 E 50 57 27 31 1024.4 1024.4 0.0
20/07:00am 11.7 2.2 9.8 88 1.0 ESE 50 56 27 30 1024.7 1024.7 0.0
20/06:30am 11.4 2.7 9.8 90 0.8 ESE 46 54 25 29 1025.0 1025.0 0.0
20/06:00am 11.4 1.1 9.5 88 1.0 ESE 54 61 29 33 1024.5 1024.5 0.0
20/05:30am 11.2 1.9 9.3 88 1.0 ESE 48 54 26 29 1024.5 1024.5 0.0
20/05:00am 11.0 2.1 9.1 88 0.9 ESE 46 52 25 28 1024.4 1024.4 0.0
20/04:30am 11.0 2.1 9.1 88 1.0 E 46 54 25 29 1024.4 1024.4 0.0
20/04:00am 10.9 1.3 9.5 91 0.7 ESE 50 61 27 33 1024.3 1024.3 0.0
20/03:30am 10.9 1.3 9.3 90 0.8 ESE 50 57 27 31 1024.4 1024.4 0.0
20/03:00am 11.0 1.4 9.6 91 0.7 ESE 50 59 27 32 1024.3 1024.3 0.0
20/02:30am 10.7 1.4 9.0 89 0.8 ESE 48 56 26 30 1025.0 1025.0 0.0
20/02:00am 10.9 0.1 9.2 89 0.8 ESE 56 63 30 34 1024.6 1024.6 0.0
20/01:30am 10.9 1.6 9.3 90 0.8 ESE 48 57 26 31 1025.1 1025.1 0.0
20/01:00am 10.9 0.8 8.8 87 1.0 ESE 52 57 28 31 1025.8 1025.8 0.0
20/12:30am 11.1 2.5 9.0 87 1.0 ESE 44 54 24 29 1026.4 1026.4 0.0
20/12:00am 11.2 1.5 9.1 87 1.0 ESE 50 61 27 33 1026.2 1026.2 0.0
 
Date/Time
EDT
Temp
°C
App
Temp
°C
Dew
Point
°C
Rel
Hum
%
Delta-T
°C
Wind Press
QNH
hPa
Press
MSL
hPa
Rain since
9am
mm
Dir  Spd
km/h
Gust
km/h
Spd
kts
Gust
kts
19/11:30pm 10.8 0.7 9.1 89 0.9 ESE 52 61 28 33 1025.8 1025.8 0.0
19/11:00pm 10.8 0.4 9.1 89 0.8 ESE 54 65 29 35 1025.4 1025.4 0.0
19/10:30pm 10.9 0.4 9.0 88 0.9 ESE 54 65 29 35 1025.4 1025.4 0.0
19/10:00pm 11.1 0.3 9.2 88 0.9 ESE 56 67 30 36 1025.3 1025.3 0.0
19/09:30pm 11.1 -1.1 8.8 86 1.1 ESE 63 74 34 40 1024.8 1024.8 0.0
19/09:00pm 11.2 0.2 9.1 87 1.0 ESE 57 70 31 38 1025.0 1025.0 0.0
19/08:30pm 11.3 0.4 9.0 86 1.2 ESE 56 65 30 35 1025.1 1025.1 0.0
19/08:00pm 11.2 0.1 8.8 85 1.2 ESE 57 69 31 37 1024.6 1024.6 0.0
19/07:30pm 11.3 0.3 9.2 87 1.1 ESE 57 69 31 37 1024.2 1024.2 0.0
19/07:00pm 11.4 0.6 9.1 86 1.1 ESE 56 65 30 35 1023.9 1023.9 0.0
19/06:30pm 11.7 0.9 9.3 85 1.2 ESE 56 67 30 36 1023.8 1023.8 0.0
19/06:00pm 12.1 1.4 9.5 84 1.3 ESE 56 67 30 36 1023.4 1023.4 0.0
19/05:30pm 12.3 0.6 9.3 82 1.5 ESE 61 70 33 38 1023.1 1023.1 0.0
19/05:00pm 12.7 0.6 9.5 81 1.6 ESE 63 72 34 39 1022.8 1022.8 0.0
19/04:30pm 13.0 1.3 9.4 79 1.8 ESE 61 72 33 39 1022.7 1022.7 0.0
19/04:00pm 13.4 2.1 9.6 78 1.9 ESE 59 70 32 38 1022.6 1022.6 0.0
19/03:30pm 13.6 2.7 9.6 77 2.1 ESE 57 70 31 38 1022.5 1022.5 0.0
19/03:00pm 13.5 2.8 9.7 78 2.0 ESE 56 67 30 36 1022.4 1022.4 0.0
19/02:30pm 14.5 3.9 10.7 78 2.0 SE 57 67 31 36 1022.4 1022.4 0.0
19/02:00pm 13.4 2.7 10.2 81 1.7 SE 57 69 31 37 1022.3 1022.3 0.0
19/01:30pm 12.8 2.2 10.5 86 1.2 SE 57 74 31 40 1022.1 1022.1 0.0
19/01:25pm 13.0 2.7 9.8 81 1.6 SE 54 74 29 40 1021.9 1021.9 0.0
19/01:00pm 12.8 1.3 10.0 83 1.4 ESE 61 74 33 40 1021.7 1021.7 0.0
19/12:55pm 14.0 4.4 10.8 81 1.7 SE 52 72 28 39 1021.7 1021.7 0.0
19/12:30pm 13.2 2.6 10.0 81 1.7 SE 56 65 30 35 1021.6 1021.6 0.0
19/12:00pm 13.1 1.7 10.5 84 1.4 SE 61 70 33 38 1021.3 1021.3 0.0
19/11:30am 13.5 3.0 10.9 84 1.4 SSE 57 69 31 37 1021.3 1021.3 0.0
19/11:00am 12.6 2.0 10.8 89 0.9 SSE 57 69 31 37 1021.2 1021.2 0.0
19/10:30am 12.8 2.2 10.5 86 1.2 SSE 57 69 31 37 1020.9 1020.9 0.0
19/10:00am 12.6 2.2 10.5 87 1.1 SSE 56 67 30 36 1020.8 1020.8 0.0
19/09:57am 12.6 2.2 10.7 88 1.0 SSE 56 67 30 36 1020.7 1020.7 0.0
19/09:30am 11.3 3.7 10.5 95 0.4 S 41 50 22 27 1020.8 1020.8 0.0

Other formats

Comma delimited format used in spreadsheet applications
http://www.bom.gov.au/fwo/IDV60801/IDV60801.94949.axf

JavaScript Object Notation format (JSON) in row-major order
http://www.bom.gov.au/fwo/IDV60801/IDV60801.94949.json

Data quality

Most of these data are generated automatically and are frequently updated. Quality checks on data are not normally performed. It is possible for incorrect values to appear. Refer to information at About Latest Weather Observations and please check the disclaimer before using these data.